FAKN

Kruger Mpumalanga International Airport

Airport
ICAO code
FAKN
IATA Code
MQP
Summary
ICAO Region
AFI
ICAO Territory
Location

, Mpumalanga

Serving
Mpumalanga
Elevation
2829 ft
Coordinates
25° 22' 60" S , 31° 6' 20" E
Metar
FAKN 220100Z AUTO 10005KT //// // ////// 20/19 Q1017

Runways

Designator Length Width Surface Rops
5/23 3100 45 ASP Yes/Yes

Airport map

Aerial View

SKYbrary Partners:

Safety knowledge contributed by: